首页
METAR-TAF:

METAR-TAF

机场 :

波尔查诺, 意大利

纬度: 46-28N, 经度: 011-20E, 海拔: 262米

当前天气观测

该预报发布于1小时和9分钟前的18:50 UTC
风速6节,风向,在东南南转西南之间变化
温度 11°C
湿度 40%
气压 1010 hPa
能见度10公里或以上
1500米以下无云,无积雨云

METAR: LIPB 021850Z 17006KT 140V200 CAVOK 11/M02 Q1010 RMK MON LIB

时间: 21:59 (19:59 UTC)

预报

该预报发布于2小时和59分钟前的17:00 UTC
预报有效从02日的 18点(UTC)到 03日的 18点(UTC)
风速5节,风向多变
能见度10公里或以上
1500米以下无云,无积雨云

TAF: LIPB 021700Z 0218/0318 VRB05KT CAVOK

超过4000个机场的气象观测和天气预报(METAR&TAF报告)。

可查询的气象台以黄色和红色小点在地图上表示。

将鼠标移到小点上方,可查看气象台名称。

然后点击查看天气观测和预报。

如需切换地图:点击带黑十字的绿色按钮放大地图;点击带横线的绿色按钮缩小地图;或者点击绿色箭头查看邻近地区的地图。


METAR-TAF: